createdAt,value
2023-06-17T00:00:43.142Z,157.19
2023-06-17T00:01:42.924Z,156.65
2023-06-17T00:02:42.934Z,155.98
2023-06-17T00:03:43.020Z,156.96
2023-06-17T00:04:42.920Z,156.78
2023-06-17T00:05:42.903Z,156.35
2023-06-17T00:06:42.892Z,154.44
2023-06-17T00:07:42.884Z,155.10
2023-06-17T00:08:42.878Z,154.42
2023-06-17T00:09:42.869Z,154.24
2023-06-17T00:10:42.864Z,153.92
2023-06-17T00:11:42.868Z,156.15
2023-06-17T00:12:42.850Z,155.22
2023-06-17T00:13:42.845Z,155.12
2023-06-17T00:14:42.832Z,154.43
2023-06-17T00:15:42.826Z,154.41
2023-06-17T00:16:42.821Z,153.53
2023-06-17T00:17:42.842Z,154.47
2023-06-17T00:18:42.813Z,153.51
2023-06-17T00:19:42.801Z,155.22
2023-06-17T00:20:42.790Z,154.85
2023-06-17T00:21:42.784Z,153.25
2023-06-17T00:22:42.789Z,154.65
2023-06-17T00:23:42.861Z,154.96
2023-06-17T00:24:42.784Z,153.54
2023-06-17T00:25:42.775Z,154.35
2023-06-17T00:26:42.754Z,154.78
2023-06-17T00:27:42.749Z,153.97
2023-06-17T00:28:42.745Z,154.12
2023-06-17T00:29:42.736Z,154.28
2023-06-17T00:30:42.737Z,153.45
2023-06-17T00:31:42.718Z,153.44
2023-06-17T00:32:42.751Z,153.60
2023-06-17T00:33:42.712Z,153.71
2023-06-17T00:34:42.696Z,154.55
2023-06-17T00:35:42.701Z,155.00
2023-06-17T00:36:42.689Z,154.97
2023-06-17T00:37:42.679Z,152.69
2023-06-17T00:38:42.675Z,153.03
2023-06-17T00:39:42.664Z,153.41
2023-06-17T00:40:42.661Z,154.18
2023-06-17T00:41:42.646Z,155.20
2023-06-17T00:42:42.650Z,154.57
2023-06-17T00:43:42.653Z,152.59
2023-06-17T00:44:42.636Z,152.77
2023-06-17T00:45:42.631Z,153.03
2023-06-17T00:46:42.678Z,153.75
2023-06-17T00:47:42.661Z,152.81
2023-06-17T00:48:42.615Z,152.69
2023-06-17T00:49:42.605Z,152.16
2023-06-17T00:50:42.598Z,154.17
2023-06-17T00:51:42.586Z,152.74
2023-06-17T00:52:43.211Z,152.45
2023-06-17T00:53:42.581Z,152.46
2023-06-17T00:54:42.577Z,151.21
2023-06-17T00:55:42.564Z,152.22
2023-06-17T00:56:42.565Z,153.21
2023-06-17T00:57:42.571Z,153.58
2023-06-17T00:58:42.590Z,152.58
2023-06-17T00:59:42.601Z,152.19
2023-06-17T01:00:42.623Z,152.25
2023-06-17T01:01:42.648Z,152.61
2023-06-17T01:02:42.737Z,152.19
2023-06-17T01:03:42.765Z,151.32
2023-06-17T01:04:42.693Z,152.83
2023-06-17T01:05:42.713Z,152.29
2023-06-17T01:06:42.729Z,153.35
2023-06-17T01:07:42.756Z,151.81
2023-06-17T01:08:42.779Z,149.57
2023-06-17T01:09:42.786Z,152.26
2023-06-17T01:10:42.799Z,150.13
2023-06-17T01:11:42.820Z,150.83
2023-06-17T01:12:42.848Z,151.99
2023-06-17T01:13:42.866Z,148.78
2023-06-17T01:14:42.896Z,150.46
2023-06-17T01:15:42.963Z,150.43
2023-06-17T01:16:43.065Z,151.32
2023-06-17T01:17:43.019Z,150.70
2023-06-17T01:18:42.983Z,150.31
2023-06-17T01:19:43.032Z,150.15
2023-06-17T01:20:43.028Z,151.98
2023-06-17T01:21:43.060Z,150.33
2023-06-17T01:22:43.083Z,151.24
2023-06-17T01:23:43.102Z,152.31
2023-06-17T01:24:43.117Z,151.19
2023-06-17T01:25:44.146Z,150.20
2023-06-17T01:26:43.142Z,149.78
2023-06-17T01:27:43.164Z,150.23
2023-06-17T01:28:43.180Z,149.07
2023-06-17T01:29:43.201Z,148.50
2023-06-17T01:30:43.221Z,148.54
2023-06-17T01:31:43.238Z,148.84
2023-06-17T01:32:43.338Z,147.05
2023-06-17T01:33:43.278Z,149.91
2023-06-17T01:34:43.295Z,148.70
2023-06-17T01:35:43.306Z,149.19
2023-06-17T01:36:44.049Z,147.56
2023-06-17T01:37:43.364Z,149.09
2023-06-17T01:38:43.399Z,147.91
2023-06-17T01:39:43.395Z,148.09
2023-06-17T01:40:43.408Z,150.58
2023-06-17T01:41:43.409Z,148.04
2023-06-17T01:42:43.457Z,149.25
2023-06-17T01:43:43.454Z,149.71
2023-06-17T01:44:43.485Z,148.60
2023-06-17T01:45:43.504Z,148.58
2023-06-17T01:46:43.528Z,148.38
2023-06-17T01:47:43.584Z,149.43
2023-06-17T01:48:43.568Z,147.90
2023-06-17T01:49:43.592Z,147.27
2023-06-17T01:50:43.610Z,149.39
2023-06-17T01:51:43.639Z,148.71
2023-06-17T01:52:43.666Z,146.53
2023-06-17T01:53:43.690Z,147.88
2023-06-17T01:54:43.705Z,148.61
2023-06-17T01:55:43.736Z,146.48
2023-06-17T01:56:43.747Z,147.48
2023-06-17T01:57:43.784Z,149.22
2023-06-17T01:58:43.821Z,148.82
2023-06-17T01:59:43.830Z,147.56
2023-06-17T02:00:43.854Z,147.35
2023-06-17T02:01:43.875Z,146.30
2023-06-17T02:02:43.957Z,147.61
2023-06-17T02:03:44.025Z,146.16
2023-06-17T02:04:43.949Z,150.58
2023-06-17T02:05:43.982Z,148.93
2023-06-17T02:06:44.000Z,149.34
2023-06-17T02:07:44.039Z,148.58
2023-06-17T02:08:44.060Z,149.33
2023-06-17T02:09:44.085Z,149.56
2023-06-17T02:10:44.115Z,149.52
2023-06-17T02:11:44.141Z,148.69
2023-06-17T02:12:44.150Z,146.73
2023-06-17T02:13:44.183Z,145.68
2023-06-17T02:14:44.205Z,147.25
2023-06-17T02:15:44.316Z,145.47
2023-06-17T02:16:44.235Z,147.81
2023-06-17T02:17:44.338Z,145.83
2023-06-17T02:18:44.284Z,145.87
2023-06-17T02:19:44.309Z,147.46
2023-06-17T02:20:44.347Z,145.74
2023-06-17T02:21:44.365Z,148.46
2023-06-17T02:22:44.385Z,147.64
2023-06-17T02:23:44.418Z,146.50
2023-06-17T02:24:44.433Z,147.52
2023-06-17T02:25:44.451Z,146.82
2023-06-17T02:26:44.484Z,146.76
2023-06-17T02:27:44.508Z,149.11
2023-06-17T02:28:44.531Z,147.24
2023-06-17T02:29:44.535Z,144.76
2023-06-17T02:30:44.555Z,147.20
2023-06-17T02:31:44.634Z,146.96
2023-06-17T02:32:44.604Z,145.47
2023-06-17T02:33:44.623Z,147.42
2023-06-17T02:34:44.631Z,146.94
2023-06-17T02:35:44.680Z,144.39
2023-06-17T02:36:44.681Z,147.28
2023-06-17T02:37:44.716Z,145.54
2023-06-17T02:38:44.704Z,147.53
2023-06-17T02:39:44.729Z,145.75
2023-06-17T02:40:44.753Z,147.18
2023-06-17T02:41:44.766Z,146.94
2023-06-17T02:42:44.795Z,145.32
2023-06-17T02:43:44.817Z,146.18
2023-06-17T02:44:44.832Z,144.60
2023-06-17T02:45:44.870Z,145.94
2023-06-17T02:46:44.998Z,145.94
2023-06-17T02:47:44.947Z,145.49
2023-06-17T02:48:44.967Z,146.21
2023-06-17T02:49:44.984Z,144.31
2023-06-17T02:50:45.020Z,143.95
2023-06-17T02:51:45.045Z,143.20
2023-06-17T02:52:45.079Z,145.22
2023-06-17T02:53:45.116Z,145.33
2023-06-17T02:54:45.131Z,145.38
2023-06-17T02:55:45.155Z,144.53
2023-06-17T02:56:45.187Z,145.43
2023-06-17T02:57:45.220Z,145.12
2023-06-17T02:58:45.246Z,145.78
2023-06-17T02:59:45.262Z,143.34
2023-06-17T03:00:45.321Z,145.09
2023-06-17T03:01:45.337Z,146.18
2023-06-17T03:02:45.557Z,144.37
2023-06-17T03:03:45.364Z,145.36
2023-06-17T03:04:45.392Z,146.12
2023-06-17T03:05:45.420Z,145.67
2023-06-17T03:06:45.446Z,146.31
2023-06-17T03:07:45.476Z,146.21
2023-06-17T03:08:45.492Z,145.11
2023-06-17T03:09:45.508Z,147.04
2023-06-17T03:10:45.538Z,147.29
2023-06-17T03:11:45.553Z,146.37
2023-06-17T03:12:45.575Z,146.82
2023-06-17T03:13:45.598Z,146.89
2023-06-17T03:14:45.631Z,145.52
2023-06-17T03:15:45.664Z,144.73
2023-06-17T03:16:45.831Z,144.72
2023-06-17T03:17:45.751Z,145.32
2023-06-17T03:18:45.749Z,146.48
2023-06-17T03:19:45.758Z,145.79
2023-06-17T03:20:45.872Z,143.91
2023-06-17T03:21:45.851Z,146.63
2023-06-17T03:22:45.895Z,144.05
2023-06-17T03:23:45.895Z,144.51
2023-06-17T03:24:45.928Z,144.01
2023-06-17T03:25:45.934Z,143.81
2023-06-17T03:26:45.952Z,143.16
2023-06-17T03:27:45.979Z,146.35
2023-06-17T03:28:46.005Z,143.21
2023-06-17T03:29:46.028Z,144.43
2023-06-17T03:30:46.092Z,146.58
2023-06-17T03:31:46.086Z,143.43
2023-06-17T03:32:46.155Z,142.36
2023-06-17T03:33:46.134Z,144.33
2023-06-17T03:34:46.154Z,142.97
2023-06-17T03:35:46.201Z,142.72
2023-06-17T03:36:46.219Z,142.75
2023-06-17T03:37:46.256Z,143.76
2023-06-17T03:38:46.281Z,144.27
2023-06-17T03:39:46.289Z,142.92
2023-06-17T03:40:46.322Z,142.68
2023-06-17T03:41:46.366Z,141.26
2023-06-17T03:42:46.379Z,142.40
2023-06-17T03:43:46.406Z,142.90
2023-06-17T03:44:46.435Z,142.31
2023-06-17T03:45:46.461Z,140.68
2023-06-17T03:46:46.477Z,142.37
2023-06-17T03:47:46.569Z,141.01
2023-06-17T03:48:46.534Z,140.49
2023-06-17T03:49:46.557Z,143.32
2023-06-17T03:50:46.570Z,139.96
2023-06-17T03:51:46.605Z,141.99
2023-06-17T03:52:46.626Z,140.58
2023-06-17T03:53:46.654Z,140.91
2023-06-17T03:54:46.677Z,141.61
2023-06-17T03:55:46.746Z,139.48
2023-06-17T03:56:46.733Z,141.60
2023-06-17T03:57:46.775Z,139.95
2023-06-17T03:58:46.798Z,142.68
2023-06-17T03:59:46.819Z,144.40
2023-06-17T04:00:46.846Z,142.54
2023-06-17T04:01:46.867Z,142.17
2023-06-17T04:02:47.014Z,141.22
2023-06-17T04:03:47.111Z,141.97
2023-06-17T04:04:46.948Z,140.71
2023-06-17T04:05:46.994Z,140.22
2023-06-17T04:06:47.025Z,138.95
2023-06-17T04:07:47.055Z,139.68
2023-06-17T04:08:47.087Z,141.18
2023-06-17T04:10:01.713Z,139.33
2023-06-17T04:10:48.106Z,139.46
2023-06-17T04:11:47.101Z,139.60
2023-06-17T04:12:47.105Z,139.75
2023-06-17T04:13:47.102Z,140.31
2023-06-17T04:14:47.086Z,139.70
2023-06-17T04:15:47.086Z,139.77
2023-06-17T04:16:47.076Z,139.67
2023-06-17T04:17:47.123Z,140.43
2023-06-17T04:18:47.076Z,140.19
2023-06-17T04:19:47.047Z,138.66
2023-06-17T04:20:47.060Z,139.46
2023-06-17T04:21:47.041Z,138.26
2023-06-17T04:22:47.032Z,140.20
2023-06-17T04:23:47.026Z,137.81
2023-06-17T04:24:47.018Z,136.98
2023-06-17T04:25:47.008Z,140.38
2023-06-17T04:26:47.020Z,138.02
2023-06-17T04:27:47.063Z,140.03
2023-06-17T04:28:47.092Z,137.72
2023-06-17T04:29:47.134Z,139.06
2023-06-17T04:30:47.165Z,137.94
2023-06-17T04:31:47.181Z,139.45
2023-06-17T04:32:47.261Z,139.49
2023-06-17T04:33:47.252Z,139.99
2023-06-17T04:34:47.273Z,139.66
2023-06-17T04:35:47.313Z,137.91
2023-06-17T04:36:47.328Z,137.38
2023-06-17T04:37:47.354Z,137.97
2023-06-17T04:38:47.380Z,138.45
2023-06-17T04:39:47.407Z,136.99
2023-06-17T04:40:47.437Z,138.29
2023-06-17T04:41:47.484Z,139.21
2023-06-17T04:42:47.491Z,137.81
2023-06-17T04:43:47.516Z,138.30
2023-06-17T04:44:47.535Z,138.91
2023-06-17T04:45:47.571Z,137.93
2023-06-17T04:46:47.633Z,138.84
2023-06-17T04:47:47.671Z,138.59
2023-06-17T04:48:47.653Z,138.62
2023-06-17T04:49:47.666Z,137.10
2023-06-17T04:50:47.679Z,136.12
2023-06-17T04:51:47.705Z,136.51
2023-06-17T04:52:47.734Z,138.91
2023-06-17T04:53:47.770Z,137.73
2023-06-17T04:54:47.794Z,138.40
2023-06-17T04:55:47.821Z,137.49
2023-06-17T04:56:47.830Z,138.07
2023-06-17T04:57:47.871Z,137.49
2023-06-17T04:58:47.904Z,136.48
2023-06-17T04:59:47.929Z,139.06
2023-06-17T05:00:47.979Z,138.23
2023-06-17T05:01:47.989Z,137.17
2023-06-17T05:02:48.051Z,138.49
2023-06-17T05:03:48.063Z,135.73
2023-06-17T05:04:48.041Z,137.05
2023-06-17T05:05:48.063Z,136.83
2023-06-17T05:06:48.084Z,135.38
2023-06-17T05:07:48.093Z,136.36
2023-06-17T05:08:48.119Z,137.07
2023-06-17T05:09:48.129Z,135.50
2023-06-17T05:10:48.147Z,135.55
2023-06-17T05:11:48.161Z,134.57
2023-06-17T05:12:48.176Z,134.73
2023-06-17T05:13:48.211Z,135.37
2023-06-17T05:14:48.225Z,135.96
2023-06-17T05:15:48.248Z,136.10
2023-06-17T05:16:48.313Z,135.08
2023-06-17T05:17:48.368Z,135.03
2023-06-17T05:18:48.316Z,135.59
2023-06-17T05:19:48.322Z,135.85
2023-06-17T05:20:48.362Z,138.34
2023-06-17T05:21:48.363Z,134.64
2023-06-17T05:22:48.387Z,136.08
2023-06-17T05:23:48.528Z,138.49
2023-06-17T05:24:48.430Z,134.41
2023-06-17T05:25:48.438Z,136.41
2023-06-17T05:26:48.441Z,136.59
2023-06-17T05:27:48.441Z,137.16
2023-06-17T05:28:48.464Z,137.81
2023-06-17T05:29:48.472Z,137.94
2023-06-17T05:30:48.601Z,137.25
2023-06-17T05:31:48.472Z,138.89
2023-06-17T05:32:48.614Z,137.99
2023-06-17T05:33:48.501Z,135.76
2023-06-17T05:34:48.500Z,137.37
2023-06-17T05:35:48.508Z,136.95
2023-06-17T05:36:48.519Z,137.51
2023-06-17T05:37:48.528Z,137.19
2023-06-17T05:38:48.539Z,138.99
2023-06-17T05:39:48.543Z,137.76
2023-06-17T05:40:48.544Z,136.81
2023-06-17T05:41:48.558Z,138.69
2023-06-17T05:42:48.561Z,138.18
2023-06-17T05:43:48.570Z,138.20
2023-06-17T05:44:48.574Z,139.20
2023-06-17T05:45:48.622Z,138.06
2023-06-17T05:46:48.600Z,138.70
2023-06-17T05:47:48.705Z,139.23
2023-06-17T05:48:48.617Z,138.54
2023-06-17T05:49:48.626Z,139.92
2023-06-17T05:50:48.634Z,138.46
2023-06-17T05:51:48.640Z,141.32
2023-06-17T05:52:48.632Z,136.76
2023-06-17T05:53:48.645Z,137.65
2023-06-17T05:54:49.229Z,139.36
2023-06-17T05:55:48.670Z,137.96
2023-06-17T05:56:48.659Z,137.98
2023-06-17T05:57:48.664Z,139.57
2023-06-17T05:58:48.690Z,139.00
2023-06-17T05:59:48.705Z,139.46
2023-06-17T06:00:48.689Z,139.27
2023-06-17T06:01:48.747Z,137.92
2023-06-17T06:02:48.707Z,139.22
2023-06-17T06:03:48.748Z,138.79
2023-06-17T06:04:48.700Z,137.41
2023-06-17T06:05:48.692Z,138.81
2023-06-17T06:06:48.699Z,139.44
2023-06-17T06:07:48.716Z,139.24
2023-06-17T06:08:48.752Z,140.27
2023-06-17T06:09:48.747Z,140.09
2023-06-17T06:10:48.746Z,140.23
2023-06-17T06:11:48.757Z,140.23
2023-06-17T06:12:48.737Z,141.99
2023-06-17T06:13:48.740Z,141.35
2023-06-17T06:14:48.740Z,141.23
2023-06-17T06:15:48.843Z,140.19
2023-06-17T06:16:48.778Z,140.99
2023-06-17T06:17:48.769Z,140.31
2023-06-17T06:18:48.720Z,139.96
2023-06-17T06:19:48.714Z,142.57
2023-06-17T06:20:48.757Z,141.44
2023-06-17T06:21:48.753Z,141.98
2023-06-17T06:22:48.780Z,140.97
2023-06-17T06:23:48.822Z,142.73
2023-06-17T06:24:48.790Z,142.89
2023-06-17T06:25:48.773Z,141.83
2023-06-17T06:26:48.769Z,141.00
2023-06-17T06:27:48.778Z,141.97
2023-06-17T06:28:48.797Z,141.76
2023-06-17T06:29:48.778Z,141.56
2023-06-17T06:30:48.771Z,142.97
2023-06-17T06:31:48.786Z,140.86
2023-06-17T06:32:48.921Z,142.55
2023-06-17T06:33:48.823Z,140.85
2023-06-17T06:34:48.830Z,141.51
2023-06-17T06:35:48.830Z,142.56
2023-06-17T06:36:48.866Z,143.00
2023-06-17T06:37:48.856Z,144.52
2023-06-17T06:38:48.851Z,142.51
2023-06-17T06:39:48.856Z,144.76
2023-06-17T06:40:48.886Z,142.76
2023-06-17T06:41:48.886Z,143.52
2023-06-17T06:42:48.874Z,142.61
2023-06-17T06:43:48.915Z,142.90
2023-06-17T06:44:48.911Z,143.58
2023-06-17T06:45:48.952Z,143.90
2023-06-17T06:46:48.936Z,142.68
2023-06-17T06:47:48.973Z,142.27
2023-06-17T06:48:48.996Z,144.76
2023-06-17T06:49:49.009Z,143.84
2023-06-17T06:50:49.043Z,144.98
2023-06-17T06:51:49.090Z,144.22
2023-06-17T06:52:49.108Z,143.22
2023-06-17T06:53:49.125Z,144.84
2023-06-17T06:54:49.126Z,144.87
2023-06-17T06:55:49.128Z,143.33
2023-06-17T06:56:49.140Z,142.27
2023-06-17T06:57:49.171Z,144.49
2023-06-17T06:58:49.189Z,145.99
2023-06-17T06:59:52.304Z,147.07
2023-06-17T07:00:49.237Z,147.16
2023-06-17T07:01:49.218Z,146.17
2023-06-17T07:02:49.244Z,146.76
2023-06-17T07:03:49.203Z,145.48
2023-06-17T07:04:49.526Z,146.75
2023-06-17T07:05:49.193Z,146.31
2023-06-17T07:06:49.177Z,146.93
2023-06-17T07:07:49.178Z,146.94
2023-06-17T07:08:49.177Z,145.72
2023-06-17T07:09:49.163Z,148.76
2023-06-17T07:10:49.150Z,145.32
2023-06-17T07:11:49.150Z,147.41
2023-06-17T07:12:49.140Z,148.63
2023-06-17T07:13:49.136Z,149.06
2023-06-17T07:14:49.124Z,148.40
2023-06-17T07:15:49.132Z,148.85
2023-06-17T07:16:49.256Z,147.64
2023-06-17T07:17:49.112Z,149.13
2023-06-17T07:18:49.089Z,148.61
2023-06-17T07:19:49.094Z,149.49
2023-06-17T07:20:49.091Z,147.16
2023-06-17T07:21:49.074Z,150.84
2023-06-17T07:22:49.078Z,149.18
2023-06-17T07:23:49.113Z,149.30
2023-06-17T07:24:49.058Z,148.00
2023-06-17T07:25:49.077Z,149.79
2023-06-17T07:26:49.108Z,150.28
2023-06-17T07:27:49.048Z,148.43
2023-06-17T07:28:49.041Z,148.84
2023-06-17T07:29:49.039Z,149.22
2023-06-17T07:30:49.069Z,147.50
2023-06-17T07:31:49.051Z,149.21
2023-06-17T07:32:49.057Z,150.45
2023-06-17T07:33:49.000Z,151.31
2023-06-17T07:34:48.995Z,151.17
2023-06-17T07:35:48.988Z,151.83
2023-06-17T07:36:48.994Z,149.58
2023-06-17T07:37:48.976Z,148.43
2023-06-17T07:38:48.971Z,151.19
2023-06-17T07:39:48.968Z,151.20
2023-06-17T07:40:48.959Z,147.37
2023-06-17T07:41:48.944Z,150.07
2023-06-17T07:42:48.938Z,151.09
2023-06-17T07:43:48.937Z,150.49
2023-06-17T07:44:48.924Z,149.28
2023-06-17T07:45:48.927Z,149.45
2023-06-17T07:46:49.086Z,150.58
2023-06-17T07:47:49.050Z,150.91
2023-06-17T07:48:49.039Z,148.58
2023-06-17T07:49:49.104Z,150.44
2023-06-17T07:50:49.147Z,147.47
2023-06-17T07:51:49.191Z,145.59
2023-06-17T07:52:49.251Z,149.12
2023-06-17T07:53:49.325Z,147.78
2023-06-17T07:54:49.382Z,146.54
2023-06-17T07:55:49.395Z,147.71
2023-06-17T07:56:49.433Z,146.34
2023-06-17T07:57:49.492Z,149.35
2023-06-17T07:58:49.562Z,149.30
2023-06-17T07:59:49.586Z,148.26
2023-06-17T08:00:49.632Z,150.22
2023-06-17T08:01:49.738Z,147.08
2023-06-17T08:02:49.780Z,148.23
2023-06-17T08:03:49.865Z,149.12
2023-06-17T08:04:49.783Z,149.15
2023-06-17T08:05:49.877Z,149.12
2023-06-17T08:06:49.878Z,146.61
2023-06-17T08:07:49.938Z,146.34
2023-06-17T08:08:49.998Z,146.66
2023-06-17T08:09:50.042Z,146.39
2023-06-17T08:10:50.118Z,145.45
2023-06-17T08:11:50.145Z,145.36
2023-06-17T08:12:50.199Z,146.13
2023-06-17T08:13:50.248Z,144.62
2023-06-17T08:14:50.286Z,143.62
2023-06-17T08:15:50.327Z,143.86
2023-06-17T08:16:50.430Z,142.39
2023-06-17T08:17:50.401Z,142.94
2023-06-17T08:18:50.448Z,144.02
2023-06-17T08:19:50.420Z,143.64
2023-06-17T08:20:50.438Z,141.46
2023-06-17T08:21:50.510Z,141.91
2023-06-17T08:22:50.529Z,143.06
2023-06-17T08:23:50.613Z,140.41
2023-06-17T08:24:50.622Z,138.72
2023-06-17T08:25:50.683Z,140.98
2023-06-17T08:26:50.744Z,141.79
2023-06-17T08:27:50.735Z,141.66
2023-06-17T08:28:50.752Z,141.45
2023-06-17T08:29:50.777Z,139.93
2023-06-17T08:30:50.820Z,138.99
2023-06-17T08:31:50.864Z,142.06
2023-06-17T08:32:50.872Z,140.94
2023-06-17T08:33:50.880Z,138.90
2023-06-17T08:34:50.886Z,138.39
2023-06-17T08:35:50.909Z,139.91
2023-06-17T08:36:50.956Z,140.20
2023-06-17T08:37:50.922Z,139.04
2023-06-17T08:38:50.914Z,138.18
2023-06-17T08:39:50.932Z,138.83
2023-06-17T08:40:50.948Z,141.78
2023-06-17T08:41:50.964Z,140.83
2023-06-17T08:42:51.013Z,139.85
2023-06-17T08:43:51.012Z,140.17
2023-06-17T08:44:51.030Z,139.84
2023-06-17T08:45:51.084Z,141.62
2023-06-17T08:46:51.019Z,137.72
2023-06-17T08:47:51.018Z,139.32
2023-06-17T08:48:51.027Z,139.63
2023-06-17T08:49:51.060Z,136.42
2023-06-17T08:50:51.112Z,135.88
2023-06-17T08:51:51.115Z,138.66
2023-06-17T08:52:53.739Z,138.72
2023-06-17T08:53:51.116Z,138.81
2023-06-17T08:54:51.102Z,138.82
2023-06-17T08:55:51.820Z,137.65
2023-06-17T08:56:51.096Z,139.40
2023-06-17T08:57:51.091Z,139.26
2023-06-17T08:58:51.075Z,136.60
2023-06-17T08:59:51.081Z,139.08
2023-06-17T09:00:51.108Z,139.83
2023-06-17T09:01:51.117Z,138.73
2023-06-17T09:02:51.101Z,138.42
2023-06-17T09:03:51.044Z,136.52
2023-06-17T09:04:51.082Z,136.27
2023-06-17T09:05:51.032Z,138.18
2023-06-17T09:06:51.025Z,138.58
2023-06-17T09:07:51.026Z,138.62
2023-06-17T09:08:51.014Z,137.17
2023-06-17T09:09:51.009Z,136.03
2023-06-17T09:10:50.999Z,138.32
2023-06-17T09:11:52.453Z,136.78
2023-06-17T09:12:50.986Z,136.32
2023-06-17T09:13:50.985Z,137.35
2023-06-17T09:14:50.979Z,138.20
2023-06-17T09:15:50.983Z,134.74
2023-06-17T09:16:51.032Z,136.77
2023-06-17T09:17:50.981Z,136.74
2023-06-17T09:18:50.946Z,134.03
2023-06-17T09:19:50.945Z,136.51
2023-06-17T09:20:50.930Z,137.80
2023-06-17T09:21:50.933Z,138.08
2023-06-17T09:22:50.930Z,136.88
2023-06-17T09:23:50.944Z,134.95
2023-06-17T09:24:50.913Z,134.41
2023-06-17T09:25:50.910Z,133.77
2023-06-17T09:26:50.898Z,136.89
2023-06-17T09:28:11.109Z,137.44
2023-06-17T09:28:51.928Z,137.58
2023-06-17T09:29:50.919Z,137.62
2023-06-17T09:30:50.912Z,138.04
2023-06-17T09:31:50.897Z,138.43
2023-06-17T09:32:50.986Z,137.20
2023-06-17T09:33:50.900Z,134.98
2023-06-17T09:34:50.902Z,135.23
2023-06-17T09:35:50.878Z,136.32
2023-06-17T09:36:50.867Z,137.53
2023-06-17T09:38:02.661Z,134.22
2023-06-17T09:38:51.858Z,134.43
2023-06-17T09:39:50.848Z,134.85
2023-06-17T09:40:50.869Z,135.45
2023-06-17T09:41:50.846Z,135.19
2023-06-17T09:42:50.838Z,137.24
2023-06-17T09:43:50.833Z,136.45
2023-06-17T09:44:50.818Z,133.05
2023-06-17T09:45:50.812Z,138.01
2023-06-17T09:46:50.878Z,137.07
2023-06-17T09:47:50.842Z,133.56
2023-06-17T09:48:50.805Z,136.89
2023-06-17T09:49:50.802Z,135.37
2023-06-17T09:50:50.805Z,134.60
2023-06-17T09:51:50.824Z,135.40
2023-06-17T09:52:51.841Z,134.45
2023-06-17T09:53:50.890Z,131.01
2023-06-17T09:54:50.901Z,133.95
2023-06-17T09:55:50.940Z,135.32
2023-06-17T09:56:50.950Z,133.70
2023-06-17T09:57:50.961Z,133.53
2023-06-17T09:58:50.972Z,133.60
2023-06-17T09:59:51.012Z,132.37
2023-06-17T10:00:51.023Z,132.51
2023-06-17T10:01:51.042Z,132.45
2023-06-17T10:02:51.122Z,133.34
2023-06-17T10:03:51.135Z,133.58
2023-06-17T10:04:51.069Z,133.18
2023-06-17T10:05:51.084Z,134.65
2023-06-17T10:06:51.104Z,132.64
2023-06-17T10:07:51.105Z,133.17
2023-06-17T10:08:51.108Z,131.97
2023-06-17T10:09:51.124Z,129.90
2023-06-17T10:10:51.115Z,132.13
2023-06-17T10:11:51.135Z,131.75
2023-06-17T10:12:51.128Z,132.16
2023-06-17T10:13:51.168Z,131.28
2023-06-17T10:14:51.168Z,132.73
2023-06-17T10:15:51.182Z,133.01
2023-06-17T10:16:51.193Z,133.41
2023-06-17T10:17:51.291Z,133.29
2023-06-17T10:18:51.261Z,133.54
2023-06-17T10:19:51.268Z,131.26
2023-06-17T10:20:51.284Z,130.48
2023-06-17T10:21:51.305Z,131.74
2023-06-17T10:22:51.353Z,130.59
2023-06-17T10:23:51.417Z,130.49
2023-06-17T10:24:51.419Z,133.59
2023-06-17T10:25:51.423Z,132.27
2023-06-17T10:26:51.484Z,128.95
2023-06-17T10:27:51.472Z,129.53
2023-06-17T10:28:51.495Z,129.46
2023-06-17T10:29:51.529Z,126.01
2023-06-17T10:30:51.536Z,131.17
2023-06-17T10:31:51.553Z,129.51
2023-06-17T10:32:52.479Z,131.06
2023-06-17T10:33:51.613Z,130.77
2023-06-17T10:34:51.622Z,128.82
2023-06-17T10:35:51.659Z,130.42
2023-06-17T10:36:51.703Z,129.54
2023-06-17T10:37:51.706Z,129.72
2023-06-17T10:38:51.734Z,129.39
2023-06-17T10:39:51.769Z,130.22
2023-06-17T10:40:51.794Z,128.81
2023-06-17T10:41:51.848Z,125.33
2023-06-17T10:42:51.850Z,129.54
2023-06-17T10:43:51.889Z,130.05
2023-06-17T10:44:51.901Z,128.68
2023-06-17T10:45:52.003Z,129.14
2023-06-17T10:46:51.955Z,128.62
2023-06-17T10:47:51.976Z,128.16
2023-06-17T10:48:52.012Z,128.10
2023-06-17T10:49:52.147Z,130.29
2023-06-17T10:50:52.080Z,131.91
2023-06-17T10:51:57.986Z,127.19
2023-06-17T10:52:53.103Z,127.47
2023-06-17T10:53:52.095Z,128.04
2023-06-17T10:54:52.105Z,129.11
2023-06-17T10:55:52.082Z,128.98
2023-06-17T10:56:52.074Z,132.61
2023-06-17T10:57:52.068Z,129.66
2023-06-17T10:58:52.066Z,127.76
2023-06-17T10:59:52.052Z,127.08
2023-06-17T11:00:52.039Z,129.24
2023-06-17T11:01:52.042Z,129.66
2023-06-17T11:02:52.165Z,130.22
2023-06-17T11:03:52.115Z,129.49
2023-06-17T11:04:52.062Z,128.29
2023-06-17T11:05:52.085Z,131.26
2023-06-17T11:06:52.121Z,128.85
2023-06-17T11:07:52.152Z,130.42
2023-06-17T11:08:52.179Z,129.08
2023-06-17T11:09:52.213Z,131.68
2023-06-17T11:10:52.238Z,128.45
2023-06-17T11:11:52.266Z,125.30
2023-06-17T11:12:52.298Z,129.25
2023-06-17T11:13:52.334Z,131.44
2023-06-17T11:14:52.373Z,126.34
2023-06-17T11:15:52.395Z,128.58
2023-06-17T11:16:52.522Z,127.94
2023-06-17T11:17:52.493Z,129.77
2023-06-17T11:18:52.505Z,126.01
2023-06-17T11:19:52.554Z,126.72
2023-06-17T11:20:52.604Z,127.11
2023-06-17T11:21:52.651Z,126.52
2023-06-17T11:22:52.697Z,126.81
2023-06-17T11:23:52.799Z,127.06
2023-06-17T11:24:52.817Z,123.57
2023-06-17T11:25:53.496Z,125.64
2023-06-17T11:26:52.885Z,125.48
2023-06-17T11:27:52.911Z,126.36
2023-06-17T11:28:52.973Z,123.23
2023-06-17T11:29:53.025Z,125.88
2023-06-17T11:30:53.100Z,126.34
2023-06-17T11:31:53.109Z,125.83
2023-06-17T11:32:53.191Z,123.23
2023-06-17T11:33:53.215Z,124.47
2023-06-17T11:34:53.265Z,126.60
2023-06-17T11:35:53.327Z,123.66
2023-06-17T11:36:53.386Z,126.13
2023-06-17T11:37:53.433Z,125.72
2023-06-17T11:38:53.516Z,125.91
2023-06-17T11:39:53.568Z,124.47
2023-06-17T11:40:53.620Z,126.79
2023-06-17T11:41:53.687Z,127.39
2023-06-17T11:42:53.730Z,123.36
2023-06-17T11:43:53.781Z,127.31
2023-06-17T11:44:53.838Z,124.93
2023-06-17T11:45:53.896Z,124.58
2023-06-17T11:46:53.956Z,122.47
2023-06-17T11:47:54.038Z,122.57
2023-06-17T11:48:54.044Z,123.62
2023-06-17T11:49:54.085Z,121.90
2023-06-17T11:50:54.128Z,122.76
2023-06-17T11:51:54.173Z,120.77
2023-06-17T11:52:54.241Z,124.00
2023-06-17T11:53:54.291Z,123.06
2023-06-17T11:54:54.332Z,122.16
2023-06-17T11:55:54.384Z,123.41
2023-06-17T11:56:54.462Z,120.48
2023-06-17T11:57:54.508Z,122.98
2023-06-17T11:58:54.559Z,122.55
2023-06-17T11:59:54.574Z,122.27
2023-06-17T12:00:54.583Z,120.59
2023-06-17T12:01:54.680Z,118.62
2023-06-17T12:02:54.761Z,121.70
2023-06-17T12:03:54.784Z,122.02
2023-06-17T12:04:54.792Z,119.95
2023-06-17T12:05:54.820Z,121.51
2023-06-17T12:06:54.874Z,121.21
2023-06-17T12:07:54.866Z,120.77
2023-06-17T12:08:54.905Z,119.61
2023-06-17T12:09:54.949Z,120.08
2023-06-17T12:10:55.005Z,120.91
2023-06-17T12:11:55.002Z,121.44
2023-06-17T12:12:55.011Z,119.07
2023-06-17T12:13:55.039Z,121.87
2023-06-17T12:14:55.083Z,119.94
2023-06-17T12:15:55.129Z,117.71
2023-06-17T12:16:55.180Z,119.45
2023-06-17T12:17:55.245Z,119.23
2023-06-17T12:18:55.235Z,119.26
2023-06-17T12:19:55.277Z,118.48
2023-06-17T12:20:55.333Z,119.18
2023-06-17T12:21:55.380Z,117.41
2023-06-17T12:22:55.427Z,118.56
2023-06-17T12:23:55.472Z,118.57
2023-06-17T12:24:55.475Z,116.96
2023-06-17T12:25:55.521Z,119.99
2023-06-17T12:26:55.564Z,119.97
2023-06-17T12:27:55.607Z,118.23
2023-06-17T12:28:55.709Z,120.12